createdAt,value
2022-11-07T00:13:29.896Z,90.31
2022-11-07T00:28:21.053Z,90.22
2022-11-07T00:43:12.722Z,89.55
2022-11-07T00:58:03.528Z,89.64
2022-11-07T01:12:55.038Z,89.53
2022-11-07T01:27:47.127Z,88.75
2022-11-07T01:42:37.790Z,88.90
2022-11-07T01:57:49.935Z,88.99
2022-11-07T02:12:46.248Z,88.89
2022-11-07T02:27:37.699Z,89.31
2022-11-07T02:42:28.923Z,89.50
2022-11-07T02:57:19.958Z,89.20
2022-11-07T03:12:11.918Z,88.73
2022-11-07T03:27:03.869Z,87.74
2022-11-07T03:41:55.822Z,87.22
2022-11-07T03:56:46.162Z,86.15
2022-11-07T04:11:55.888Z,86.43
2022-11-07T04:27:11.498Z,86.72
2022-11-07T04:42:07.966Z,86.77
2022-11-07T04:56:59.154Z,86.69
2022-11-07T05:11:49.737Z,87.60
2022-11-07T05:26:41.491Z,87.68
2022-11-07T05:41:34.223Z,88.16
2022-11-07T05:56:25.177Z,88.58
2022-11-07T06:11:16.709Z,88.92
2022-11-07T06:26:08.161Z,88.81
2022-11-07T06:41:07.974Z,88.61
2022-11-07T06:56:01.938Z,88.67
2022-11-07T07:10:53.319Z,89.03
2022-11-07T07:25:45.017Z,88.10
2022-11-07T07:40:39.030Z,87.83
2022-11-07T07:55:29.991Z,87.92
2022-11-07T08:25:16.096Z,86.97
2022-11-07T08:40:08.273Z,85.49
2022-11-07T08:55:01.169Z,85.08
2022-11-07T09:09:53.672Z,82.36
2022-11-07T09:24:46.270Z,79.92
2022-11-07T09:39:37.584Z,79.51
2022-11-07T09:54:31.768Z,77.30
2022-11-07T10:09:56.115Z,75.85
2022-11-07T10:25:13.030Z,74.44
2022-11-07T10:40:11.978Z,73.60
2022-11-07T10:55:12.669Z,73.70
2022-11-07T11:10:16.423Z,73.28
2022-11-07T11:25:15.377Z,73.25
2022-11-07T11:40:12.148Z,73.14
2022-11-07T11:55:15.113Z,71.12
2022-11-07T12:10:28.759Z,67.97
2022-11-07T12:25:37.616Z,67.25
2022-11-07T12:40:42.559Z,65.81
2022-11-07T12:55:43.402Z,65.45
2022-11-07T13:10:50.315Z,64.15
2022-11-07T13:25:49.935Z,65.16
2022-11-07T13:40:47.253Z,66.14
2022-11-07T13:55:41.601Z,66.76
2022-11-07T14:10:38.619Z,66.78
2022-11-07T14:25:33.313Z,67.70
2022-11-07T14:40:25.019Z,68.22
2022-11-07T14:55:25.361Z,68.70
2022-11-07T15:10:33.075Z,69.82
2022-11-07T15:25:37.474Z,70.04
2022-11-07T15:40:34.979Z,70.81
2022-11-07T15:55:25.737Z,72.57
2022-11-07T16:10:24.049Z,73.74
2022-11-07T16:25:22.894Z,74.68
2022-11-07T16:40:16.602Z,75.17
2022-11-07T16:55:06.445Z,75.89
2022-11-07T17:24:53.315Z,76.79
2022-11-07T17:39:43.740Z,78.63
2022-11-07T17:54:35.605Z,79.34
2022-11-07T18:09:28.440Z,80.92
2022-11-07T18:24:19.981Z,81.20
2022-11-07T18:39:16.332Z,81.33
2022-11-07T18:54:11.360Z,81.40
2022-11-07T19:09:02.967Z,81.11
2022-11-07T19:23:54.142Z,83.00
2022-11-07T19:38:44.575Z,83.38
2022-11-07T19:53:35.499Z,84.06
2022-11-07T20:08:27.267Z,84.65
2022-11-07T20:23:20.629Z,84.71
2022-11-07T20:38:14.278Z,85.24
2022-11-07T21:08:12.529Z,85.84
2022-11-07T21:23:03.623Z,86.53
2022-11-07T21:37:56.159Z,86.12
2022-11-07T21:52:49.445Z,85.86
2022-11-07T22:07:47.849Z,85.54
2022-11-07T22:22:36.761Z,86.61
2022-11-07T22:37:27.374Z,86.60
2022-11-07T22:52:18.054Z,87.08
2022-11-07T23:07:09.575Z,88.02
2022-11-07T23:22:00.871Z,87.89
2022-11-07T23:36:52.028Z,87.96
2022-11-07T23:51:42.174Z,88.78
